ZSPD Airport Information

Runway Information
Runway 16 Length 12467 ft width 197 ft
Elevation 13 ft Threshold 0 ft Heading 162
Runway 34 Length 12467 ft Width 197 ft
Elevation 13 ft Threshold 0 ft Heading 342
Runway 17 Length 13123 ft width 197 ft
Elevation 10 ft Threshold 0 ft Heading 162
Runway 35 Length 13123 ft Width 197 ft
Elevation 10 ft Threshold 0 ft Heading 342
Airport Frequencies
Type APP Name SHANGHAI A Frequency 119.75 MHZ
Type APP Name SHANGHAI A Frequency 120.3 MHZ
Type APP Name SHAINGHAI Frequency 121.3 MHZ
Type APP Name SHANGHAI A Frequency 123.8 MHZ
Type ATIS Name ATIS Frequency 127.85 MHZ
Type CLD Name DEL Frequency 121.95 MHZ
Type GND Name GND WEST Frequency 121.65 MHZ
Type GND Name GND EAST Frequency 121.8 MHZ
Type TWR Name TWR EAST Frequency 118.4 MHZ
Type TWR Name TWR WEST Frequency 118.8 MHZ
Airport Navaids
Type VOR-DME Name Hengsha Frequency 114400 KHZ
Type VOR-DME Name Nanhui Frequency 114600 KHZ
Type VOR-DME Name Liuzao Frequency 109400 KHZ
Type VOR-DME Name Pudong Frequency 116900 KHZ
Type VOR-DME Name Shuyuan Frequency 113600 KHZ
Airport Weather Information & NOTAM
ADDS - METARS form results

(1754 UTC 16 May 2022)
Data provider http://aviationweather.gov/metar/data/
 
METAR text: ZSPD 161730Z 20003MPS 7000 NSC 15/13 Q1014 NOSIG
Conditions at: ZSPD (SHANGHAI/PUDONG , CN) observed 1730 UTC 16 May 2022
Temperature: 15.0°C (59°F)
Dewpoint: 13.0°C (55°F) [RH = 88%]
Pressure (altimeter): 29.94 inches Hg (1014.0 mb)
Winds: from the SSW (200 degrees) at 7 MPH (6 knots; 3.1 m/s)
Visibility: 4 miles ( 7 km)
Ceiling: at least 12,000 feet AGL
Clouds: sky clear below 12,000 feet AGL
Weather: no significant weather observed at this time

METAR text: ZSPD 161700Z 19003MPS CAVOK 15/13 Q1014 NOSIG
Conditions at: ZSPD (SHANGHAI/PUDONG , CN) observed 1700 UTC 16 May 2022
Temperature: 15.0°C (59°F)
Dewpoint: 13.0°C (55°F) [RH = 88%]
Pressure (altimeter): 29.94 inches Hg (1014.0 mb)
Winds: from the S (190 degrees) at 7 MPH (6 knots; 3.1 m/s)
Visibility: 6 or more miles (10+ km)
Ceiling: ceiling and visibility are OK
Clouds: unknown
Weather: no significant weather observed at this time

Forecast for: ZSPD (SHANGHAI/PUDONG , CN)
Text: TAF ZSPD 161505Z 1618/1718 19004MPS 6000 SCT040 TX28/1706Z TN17/1621Z
Forecast period: 1800 UTC 16 May 2022 to 1800 UTC 17 May 2022
Forecast type: FROM: standard forecast or significant change
Winds: from the S (190 degrees) at 9 MPH (8 knots; 4.1 m/s)
Visibility: 4 miles (6 km)
Ceiling: at least 12,000 feet AGL
Clouds: scattered clouds at 4000 feet AGL
Weather: no significant weather forecast for this period